< Typhoon 198712 1987 Season Typhoon 198714 >
Typhoon 198713 (FREDA)
General InformationTrack Information on Google MapsDetailed Wind InformationList of All Images || Disaster Info.ResourceGoogle EarthGE AnimationAtom FeedGeoJSON
Detalied Best Track (Time Zone = UTC)
Year Month Day Hour Lat. Long. Pressure (hPa) Wind (kt) Class Image Chart
1987 9 4 00 11.0 148.0 1006 0 2 Image Chart
1987 9 4 06 11.3 147.0 1004 0 2 Image Chart
1987 9 4 12 11.7 146.0 1006 0 2 Image Chart
1987 9 4 18 12.0 145.0 1004 0 2 Image Chart
1987 9 5 00 12.5 144.0 1006 0 2 Image Chart
1987 9 5 06 13.5 143.0 1002 35 3 Image Chart
1987 9 5 12 14.3 142.1 1002 35 3 Image Chart
1987 9 5 18 14.7 141.2 1000 40 3 Image Chart
1987 9 6 00 15.0 140.4 998 40 3 Image Chart
1987 9 6 06 14.7 140.5 996 45 3 Image Chart
1987 9 6 12 14.6 140.8 994 45 3 Image Chart
1987 9 6 18 14.7 140.9 990 45 3 Image Chart
1987 9 7 00 14.8 141.0 985 45 3 Image Chart
1987 9 7 06 15.2 141.2 980 50 4 Image Chart
1987 9 7 12 15.4 141.3 975 55 4 Image Chart
1987 9 7 18 15.5 141.1 970 65 5 Image Chart
1987 9 8 00 15.6 140.9 965 70 5 Image Chart
1987 9 8 06 15.8 140.7 960 70 5 Image Chart
1987 9 8 12 16.1 140.4 955 75 5 Image Chart
1987 9 8 18 16.4 139.8 950 75 5 Image Chart
1987 9 9 00 16.6 139.1 940 85 5 Image Chart
1987 9 9 06 16.7 138.7 930 90 5 Image Chart
1987 9 9 12 16.8 138.2 920 95 5 Image Chart
1987 9 9 18 17.0 137.7 915 100 5 Image Chart
1987 9 10 00 16.9 137.2 915 105 5 Image Chart
1987 9 10 06 17.2 137.3 915 105 5 Image Chart
1987 9 10 12 17.4 137.0 915 105 5 Image Chart
1987 9 10 18 17.6 136.9 925 95 5 Image Chart
1987 9 11 00 17.6 136.9 930 85 5 Image Chart
1987 9 11 06 17.8 137.4 940 85 5 Image Chart
1987 9 11 12 18.3 137.4 945 85 5 Image Chart
1987 9 11 18 18.6 137.6 950 85 5 Image Chart
1987 9 12 00 18.8 138.0 950 80 5 Image Chart
1987 9 12 06 19.2 138.5 950 80 5 Image Chart
1987 9 12 12 19.7 138.8 955 75 5 Image Chart
1987 9 12 18 20.2 139.1 960 75 5 Image Chart
1987 9 13 00 20.8 139.2 960 75 5 Image Chart
1987 9 13 06 21.3 139.5 955 75 5 Image Chart
1987 9 13 12 22.0 139.8 950 80 5 Image Chart
1987 9 13 18 22.6 139.8 950 80 5 Image Chart
1987 9 14 00 23.3 140.0 950 80 5 Image Chart
1987 9 14 06 24.2 140.0 950 75 5 Image Chart
1987 9 14 12 25.0 140.1 950 75 5 Image Chart
1987 9 14 18 25.7 140.1 950 75 5 Image Chart
1987 9 15 00 26.5 139.9 955 75 5 Image Chart
1987 9 15 06 27.4 139.8 955 75 5 Image Chart
1987 9 15 12 28.4 139.9 960 75 5 Image Chart
1987 9 15 18 29.4 140.0 960 75 5 Image Chart
1987 9 16 00 30.1 140.1 965 70 5 Image Chart
1987 9 16 06 30.9 140.2 965 70 5 Image Chart
1987 9 16 12 31.6 140.6 970 65 5 Image Chart
1987 9 16 18 32.0 141.2 970 65 5 Image Chart
1987 9 17 00 32.6 142.6 975 60 4 Image Chart
1987 9 17 06 33.3 144.6 975 60 4 Image Chart
1987 9 17 12 34.1 146.2 975 60 4 Image Chart
1987 9 17 18 35.0 148.0 980 55 4 Image Chart
1987 9 18 00 36.0 150.0 980 50 4 Image Chart
1987 9 18 06 36.9 152.0 975 50 4 Image Chart
1987 9 18 12 38.0 154.4 975 50 4 Image Chart
1987 9 18 18 39.6 157.0 975 50 4 Image Chart
1987 9 19 00 41.5 159.0 980 0 6 Image Chart
1987 9 19 06 44.0 161.0 984 0 6 Image Chart
1987 9 19 12 47.0 163.0 988 0 6 Image Chart
1987 9 19 18 50.0 165.0 990 0 6 Image Chart
1987 9 20 00 52.0 167.0 992 0 6 Image Chart
Japan Meteorological Agency Best Track Data | Correction Date : 1992-10-21
< Typhoon 198712 1987 Season Typhoon 198714 >

Help